sensor_id;sensor_type;location;lat;lon;timestamp;P1;durP1;ratioP1;P2;durP2;ratioP2
68072;SDS011;54862;51.502;7.446;2023-07-29T00:01:30;2.88;;;1.90;;
68072;SDS011;54862;51.502;7.446;2023-07-29T00:03:56;3.42;;;2.10;;
68072;SDS011;54862;51.502;7.446;2023-07-29T00:06:22;3.65;;;2.00;;
68072;SDS011;54862;51.502;7.446;2023-07-29T00:08:50;3.72;;;2.13;;
68072;SDS011;54862;51.502;7.446;2023-07-29T00:11:16;3.78;;;2.30;;
68072;SDS011;54862;51.502;7.446;2023-07-29T00:13:42;2.58;;;1.90;;
68072;SDS011;54862;51.502;7.446;2023-07-29T00:16:08;3.30;;;1.90;;
68072;SDS011;54862;51.502;7.446;2023-07-29T00:18:36;3.53;;;1.92;;
68072;SDS011;54862;51.502;7.446;2023-07-29T00:21:02;3.35;;;2.20;;
68072;SDS011;54862;51.502;7.446;2023-07-29T00:23:28;3.33;;;2.00;;
68072;SDS011;54862;51.502;7.446;2023-07-29T00:25:54;2.28;;;1.92;;
68072;SDS011;54862;51.502;7.446;2023-07-29T00:28:23;2.50;;;1.60;;
68072;SDS011;54862;51.502;7.446;2023-07-29T00:30:49;3.05;;;1.98;;
68072;SDS011;54862;51.502;7.446;2023-07-29T00:33:17;3.67;;;2.08;;
68072;SDS011;54862;51.502;7.446;2023-07-29T00:35:45;2.85;;;1.85;;
68072;SDS011;54862;51.502;7.446;2023-07-29T00:38:13;1.88;;;1.67;;
68072;SDS011;54862;51.502;7.446;2023-07-29T00:40:39;4.28;;;1.80;;
68072;SDS011;54862;51.502;7.446;2023-07-29T00:43:05;3.17;;;2.00;;
68072;SDS011;54862;51.502;7.446;2023-07-29T00:45:32;3.80;;;1.90;;
68072;SDS011;54862;51.502;7.446;2023-07-29T00:47:58;3.85;;;2.17;;
68072;SDS011;54862;51.502;7.446;2023-07-29T00:50:25;3.00;;;1.95;;
68072;SDS011;54862;51.502;7.446;2023-07-29T00:52:52;3.08;;;2.08;;
68072;SDS011;54862;51.502;7.446;2023-07-29T00:55:21;3.38;;;2.10;;
68072;SDS011;54862;51.502;7.446;2023-07-29T00:57:49;2.83;;;2.00;;
68072;SDS011;54862;51.502;7.446;2023-07-29T01:00:16;3.08;;;2.10;;
68072;SDS011;54862;51.502;7.446;2023-07-29T01:02:43;2.58;;;2.00;;
68072;SDS011;54862;51.502;7.446;2023-07-29T01:05:09;2.80;;;2.00;;
68072;SDS011;54862;51.502;7.446;2023-07-29T01:07:39;3.28;;;1.80;;
68072;SDS011;54862;51.502;7.446;2023-07-29T01:10:18;4.07;;;1.92;;
68072;SDS011;54862;51.502;7.446;2023-07-29T01:15:20;2.47;;;1.80;;
68072;SDS011;54862;51.502;7.446;2023-07-29T01:17:49;2.95;;;2.00;;
68072;SDS011;54862;51.502;7.446;2023-07-29T01:20:19;3.00;;;1.95;;
68072;SDS011;54862;51.502;7.446;2023-07-29T01:22:45;2.55;;;1.90;;
68072;SDS011;54862;51.502;7.446;2023-07-29T01:25:17;3.15;;;2.03;;
68072;SDS011;54862;51.502;7.446;2023-07-29T01:27:45;2.88;;;1.80;;
68072;SDS011;54862;51.502;7.446;2023-07-29T01:30:13;3.20;;;2.13;;
68072;SDS011;54862;51.502;7.446;2023-07-29T01:32:52;3.70;;;2.33;;
68072;SDS011;54862;51.502;7.446;2023-07-29T01:37:48;2.92;;;1.90;;
68072;SDS011;54862;51.502;7.446;2023-07-29T01:40:14;3.10;;;2.08;;
68072;SDS011;54862;51.502;7.446;2023-07-29T01:42:41;3.45;;;2.05;;
68072;SDS011;54862;51.502;7.446;2023-07-29T01:45:07;2.35;;;1.73;;
68072;SDS011;54862;51.502;7.446;2023-07-29T01:47:33;2.97;;;2.00;;
68072;SDS011;54862;51.502;7.446;2023-07-29T01:49:59;3.15;;;2.10;;
68072;SDS011;54862;51.502;7.446;2023-07-29T01:52:28;2.88;;;2.10;;
68072;SDS011;54862;51.502;7.446;2023-07-29T01:54:54;3.00;;;2.00;;
68072;SDS011;54862;51.502;7.446;2023-07-29T01:57:20;2.45;;;1.90;;
68072;SDS011;54862;51.502;7.446;2023-07-29T01:59:49;2.67;;;1.95;;
68072;SDS011;54862;51.502;7.446;2023-07-29T02:02:17;3.17;;;1.95;;
68072;SDS011;54862;51.502;7.446;2023-07-29T02:04:43;2.40;;;1.80;;
68072;SDS011;54862;51.502;7.446;2023-07-29T02:07:16;3.40;;;1.90;;
68072;SDS011;54862;51.502;7.446;2023-07-29T02:09:42;3.33;;;1.90;;
68072;SDS011;54862;51.502;7.446;2023-07-29T02:12:08;2.88;;;1.80;;
68072;SDS011;54862;51.502;7.446;2023-07-29T02:14:34;2.45;;;1.85;;
68072;SDS011;54862;51.502;7.446;2023-07-29T02:17:00;3.08;;;2.03;;
68072;SDS011;54862;51.502;7.446;2023-07-29T02:19:28;2.78;;;1.67;;
68072;SDS011;54862;51.502;7.446;2023-07-29T02:21:56;3.47;;;1.83;;
68072;SDS011;54862;51.502;7.446;2023-07-29T02:24:22;1.85;;;1.58;;
68072;SDS011;54862;51.502;7.446;2023-07-29T02:26:48;2.53;;;1.90;;
68072;SDS011;54862;51.502;7.446;2023-07-29T02:29:14;2.88;;;1.88;;
68072;SDS011;54862;51.502;7.446;2023-07-29T02:31:40;2.92;;;1.77;;
68072;SDS011;54862;51.502;7.446;2023-07-29T02:34:06;2.80;;;1.83;;
68072;SDS011;54862;51.502;7.446;2023-07-29T02:36:35;2.70;;;1.77;;
68072;SDS011;54862;51.502;7.446;2023-07-29T02:39:01;2.38;;;1.80;;
68072;SDS011;54862;51.502;7.446;2023-07-29T02:41:29;2.78;;;1.83;;
68072;SDS011;54862;51.502;7.446;2023-07-29T02:43:58;1.60;;;1.50;;
68072;SDS011;54862;51.502;7.446;2023-07-29T02:46:24;2.38;;;1.65;;
68072;SDS011;54862;51.502;7.446;2023-07-29T02:48:52;3.28;;;1.80;;
68072;SDS011;54862;51.502;7.446;2023-07-29T02:51:18;2.58;;;1.67;;
68072;SDS011;54862;51.502;7.446;2023-07-29T02:53:44;2.08;;;1.50;;
68072;SDS011;54862;51.502;7.446;2023-07-29T02:56:10;2.70;;;1.70;;
68072;SDS011;54862;51.502;7.446;2023-07-29T02:58:36;3.08;;;1.80;;
68072;SDS011;54862;51.502;7.446;2023-07-29T03:01:03;1.63;;;1.50;;
68072;SDS011;54862;51.502;7.446;2023-07-29T03:03:30;1.70;;;1.60;;
68072;SDS011;54862;51.502;7.446;2023-07-29T03:06:01;4.25;;;1.70;;
68072;SDS011;54862;51.502;7.446;2023-07-29T03:08:30;1.95;;;1.63;;
68072;SDS011;54862;51.502;7.446;2023-07-29T03:10:56;5.55;;;1.95;;
68072;SDS011;54862;51.502;7.446;2023-07-29T03:13:22;2.08;;;1.73;;
68072;SDS011;54862;51.502;7.446;2023-07-29T03:15:48;2.95;;;1.90;;
68072;SDS011;54862;51.502;7.446;2023-07-29T03:18:15;3.15;;;1.80;;
68072;SDS011;54862;51.502;7.446;2023-07-29T03:20:41;3.53;;;2.00;;
68072;SDS011;54862;51.502;7.446;2023-07-29T03:23:09;2.95;;;1.85;;
68072;SDS011;54862;51.502;7.446;2023-07-29T03:25:35;2.22;;;1.52;;
68072;SDS011;54862;51.502;7.446;2023-07-29T03:28:01;1.80;;;1.70;;
68072;SDS011;54862;51.502;7.446;2023-07-29T03:30:27;4.70;;;2.00;;
68072;SDS011;54862;51.502;7.446;2023-07-29T03:32:55;3.80;;;2.03;;
68072;SDS011;54862;51.502;7.446;2023-07-29T03:35:21;2.78;;;1.80;;
68072;SDS011;54862;51.502;7.446;2023-07-29T03:37:49;3.72;;;1.80;;
68072;SDS011;54862;51.502;7.446;2023-07-29T03:40:15;3.00;;;2.00;;
68072;SDS011;54862;51.502;7.446;2023-07-29T03:42:44;3.63;;;2.10;;
68072;SDS011;54862;51.502;7.446;2023-07-29T03:45:12;4.07;;;2.30;;
68072;SDS011;54862;51.502;7.446;2023-07-29T03:47:38;3.45;;;2.30;;
68072;SDS011;54862;51.502;7.446;2023-07-29T03:50:04;3.60;;;1.95;;
68072;SDS011;54862;51.502;7.446;2023-07-29T03:52:30;4.57;;;2.53;;
68072;SDS011;54862;51.502;7.446;2023-07-29T03:54:56;2.90;;;2.00;;
68072;SDS011;54862;51.502;7.446;2023-07-29T03:57:22;4.82;;;2.33;;
68072;SDS011;54862;51.502;7.446;2023-07-29T03:59:48;2.95;;;1.95;;
68072;SDS011;54862;51.502;7.446;2023-07-29T04:02:17;3.92;;;2.17;;
68072;SDS011;54862;51.502;7.446;2023-07-29T04:04:43;3.15;;;2.28;;
68072;SDS011;54862;51.502;7.446;2023-07-29T04:07:14;2.67;;;2.05;;
68072;SDS011;54862;51.502;7.446;2023-07-29T04:09:40;3.10;;;2.08;;
68072;SDS011;54862;51.502;7.446;2023-07-29T04:12:08;4.38;;;2.08;;
68072;SDS011;54862;51.502;7.446;2023-07-29T04:14:34;3.88;;;2.13;;
68072;SDS011;54862;51.502;7.446;2023-07-29T04:17:03;3.65;;;1.90;;
68072;SDS011;54862;51.502;7.446;2023-07-29T04:19:29;4.15;;;2.17;;
68072;SDS011;54862;51.502;7.446;2023-07-29T04:21:59;3.25;;;1.85;;
68072;SDS011;54862;51.502;7.446;2023-07-29T04:24:25;3.50;;;2.00;;
68072;SDS011;54862;51.502;7.446;2023-07-29T04:26:53;4.88;;;2.42;;
68072;SDS011;54862;51.502;7.446;2023-07-29T04:29:19;4.30;;;2.28;;
68072;SDS011;54862;51.502;7.446;2023-07-29T04:31:48;4.88;;;2.60;;
68072;SDS011;54862;51.502;7.446;2023-07-29T04:34:14;3.78;;;2.20;;
68072;SDS011;54862;51.502;7.446;2023-07-29T04:36:40;3.63;;;2.08;;
68072;SDS011;54862;51.502;7.446;2023-07-29T04:39:06;3.60;;;2.03;;
68072;SDS011;54862;51.502;7.446;2023-07-29T04:41:32;5.25;;;2.40;;
68072;SDS011;54862;51.502;7.446;2023-07-29T04:43:58;2.10;;;1.70;;
68072;SDS011;54862;51.502;7.446;2023-07-29T04:46:24;3.20;;;2.17;;
68072;SDS011;54862;51.502;7.446;2023-07-29T04:48:50;3.17;;;2.08;;
68072;SDS011;54862;51.502;7.446;2023-07-29T04:51:16;3.42;;;2.10;;
68072;SDS011;54862;51.502;7.446;2023-07-29T04:53:42;4.15;;;2.40;;
68072;SDS011;54862;51.502;7.446;2023-07-29T04:56:11;2.70;;;2.05;;
68072;SDS011;54862;51.502;7.446;2023-07-29T04:58:37;3.55;;;2.00;;
68072;SDS011;54862;51.502;7.446;2023-07-29T05:01:03;5.25;;;2.20;;
68072;SDS011;54862;51.502;7.446;2023-07-29T05:03:29;4.78;;;2.58;;
68072;SDS011;54862;51.502;7.446;2023-07-29T05:05:55;4.95;;;2.65;;
68072;SDS011;54862;51.502;7.446;2023-07-29T05:08:24;5.57;;;2.78;;
68072;SDS011;54862;51.502;7.446;2023-07-29T05:10:53;5.45;;;2.60;;
68072;SDS011;54862;51.502;7.446;2023-07-29T05:13:22;5.80;;;3.05;;
68072;SDS011;54862;51.502;7.446;2023-07-29T05:15:48;4.93;;;2.55;;
68072;SDS011;54862;51.502;7.446;2023-07-29T05:18:15;4.47;;;2.45;;
68072;SDS011;54862;51.502;7.446;2023-07-29T05:20:41;5.80;;;2.75;;
68072;SDS011;54862;51.502;7.446;2023-07-29T05:23:07;8.98;;;2.88;;
68072;SDS011;54862;51.502;7.446;2023-07-29T05:25:35;5.22;;;2.80;;
68072;SDS011;54862;51.502;7.446;2023-07-29T05:28:04;6.35;;;2.88;;
68072;SDS011;54862;51.502;7.446;2023-07-29T05:30:30;5.57;;;2.97;;
68072;SDS011;54862;51.502;7.446;2023-07-29T05:32:59;5.35;;;2.67;;
68072;SDS011;54862;51.502;7.446;2023-07-29T05:35:25;5.85;;;2.90;;
68072;SDS011;54862;51.502;7.446;2023-07-29T05:37:53;6.32;;;2.90;;
68072;SDS011;54862;51.502;7.446;2023-07-29T05:40:21;7.43;;;3.25;;
68072;SDS011;54862;51.502;7.446;2023-07-29T05:42:47;5.43;;;2.90;;
68072;SDS011;54862;51.502;7.446;2023-07-29T05:45:16;7.05;;;3.20;;
68072;SDS011;54862;51.502;7.446;2023-07-29T05:47:44;8.07;;;4.18;;
68072;SDS011;54862;51.502;7.446;2023-07-29T05:50:15;6.88;;;3.45;;
68072;SDS011;54862;51.502;7.446;2023-07-29T05:52:43;6.65;;;3.42;;
68072;SDS011;54862;51.502;7.446;2023-07-29T05:55:12;7.43;;;3.40;;
68072;SDS011;54862;51.502;7.446;2023-07-29T05:57:38;7.55;;;3.80;;
68072;SDS011;54862;51.502;7.446;2023-07-29T06:00:04;7.28;;;3.53;;
68072;SDS011;54862;51.502;7.446;2023-07-29T06:02:32;8.45;;;3.78;;
68072;SDS011;54862;51.502;7.446;2023-07-29T06:04:59;7.00;;;3.45;;
68072;SDS011;54862;51.502;7.446;2023-07-29T06:07:25;7.90;;;3.95;;
68072;SDS011;54862;51.502;7.446;2023-07-29T06:09:54;7.95;;;3.72;;
68072;SDS011;54862;51.502;7.446;2023-07-29T06:12:20;8.25;;;3.97;;
68072;SDS011;54862;51.502;7.446;2023-07-29T06:14:48;7.75;;;4.03;;
68072;SDS011;54862;51.502;7.446;2023-07-29T06:17:14;7.22;;;3.53;;
68072;SDS011;54862;51.502;7.446;2023-07-29T06:19:40;6.95;;;3.30;;
68072;SDS011;54862;51.502;7.446;2023-07-29T06:22:06;9.50;;;4.10;;
68072;SDS011;54862;51.502;7.446;2023-07-29T06:24:32;9.23;;;4.75;;
68072;SDS011;54862;51.502;7.446;2023-07-29T06:26:58;7.70;;;4.03;;
68072;SDS011;54862;51.502;7.446;2023-07-29T06:29:27;7.57;;;3.83;;
68072;SDS011;54862;51.502;7.446;2023-07-29T06:31:56;8.73;;;4.20;;
68072;SDS011;54862;51.502;7.446;2023-07-29T06:34:22;8.02;;;3.83;;
68072;SDS011;54862;51.502;7.446;2023-07-29T06:36:50;8.68;;;4.10;;
68072;SDS011;54862;51.502;7.446;2023-07-29T06:39:16;9.32;;;4.20;;
68072;SDS011;54862;51.502;7.446;2023-07-29T06:41:45;7.57;;;3.72;;
68072;SDS011;54862;51.502;7.446;2023-07-29T06:44:13;5.70;;;3.42;;
68072;SDS011;54862;51.502;7.446;2023-07-29T06:46:42;6.53;;;3.47;;
68072;SDS011;54862;51.502;7.446;2023-07-29T06:49:12;6.00;;;2.70;;
68072;SDS011;54862;51.502;7.446;2023-07-29T06:51:38;5.78;;;2.50;;
68072;SDS011;54862;51.502;7.446;2023-07-29T06:54:07;4.25;;;2.55;;
68072;SDS011;54862;51.502;7.446;2023-07-29T06:56:32;4.32;;;2.33;;
68072;SDS011;54862;51.502;7.446;2023-07-29T06:58:58;5.20;;;2.50;;
68072;SDS011;54862;51.502;7.446;2023-07-29T07:01:24;4.28;;;2.42;;
68072;SDS011;54862;51.502;7.446;2023-07-29T07:03:50;5.15;;;2.47;;
68072;SDS011;54862;51.502;7.446;2023-07-29T07:06:19;4.75;;;2.50;;
68072;SDS011;54862;51.502;7.446;2023-07-29T07:08:45;4.53;;;2.42;;
68072;SDS011;54862;51.502;7.446;2023-07-29T07:11:11;5.32;;;2.13;;
68072;SDS011;54862;51.502;7.446;2023-07-29T07:13:37;3.45;;;2.10;;
68072;SDS011;54862;51.502;7.446;2023-07-29T07:16:05;4.00;;;1.95;;
68072;SDS011;54862;51.502;7.446;2023-07-29T07:18:33;4.25;;;2.05;;
68072;SDS011;54862;51.502;7.446;2023-07-29T07:20:59;3.42;;;1.92;;
68072;SDS011;54862;51.502;7.446;2023-07-29T07:23:25;3.58;;;1.80;;
68072;SDS011;54862;51.502;7.446;2023-07-29T07:25:51;3.03;;;1.90;;
68072;SDS011;54862;51.502;7.446;2023-07-29T07:28:20;2.83;;;1.70;;
68072;SDS011;54862;51.502;7.446;2023-07-29T07:30:46;2.83;;;1.70;;
68072;SDS011;54862;51.502;7.446;2023-07-29T07:33:12;1.23;;;1.13;;
68072;SDS011;54862;51.502;7.446;2023-07-29T07:35:38;2.13;;;1.48;;
68072;SDS011;54862;51.502;7.446;2023-07-29T07:38:04;3.58;;;1.70;;
68072;SDS011;54862;51.502;7.446;2023-07-29T07:40:34;3.08;;;1.75;;
68072;SDS011;54862;51.502;7.446;2023-07-29T07:43:01;2.80;;;1.80;;
68072;SDS011;54862;51.502;7.446;2023-07-29T07:45:27;1.60;;;1.48;;
68072;SDS011;54862;51.502;7.446;2023-07-29T07:47:53;5.50;;;1.73;;
68072;SDS011;54862;51.502;7.446;2023-07-29T07:50:19;2.40;;;1.73;;
68072;SDS011;54862;51.502;7.446;2023-07-29T07:52:45;3.38;;;1.70;;
68072;SDS011;54862;51.502;7.446;2023-07-29T07:55:13;1.70;;;1.55;;
68072;SDS011;54862;51.502;7.446;2023-07-29T07:57:42;4.07;;;1.67;;
68072;SDS011;54862;51.502;7.446;2023-07-29T08:00:08;1.63;;;1.42;;
68072;SDS011;54862;51.502;7.446;2023-07-29T08:02:35;2.13;;;1.70;;
68072;SDS011;54862;51.502;7.446;2023-07-29T08:05:01;1.58;;;1.40;;
68072;SDS011;54862;51.502;7.446;2023-07-29T08:07:28;1.73;;;1.40;;
68072;SDS011;54862;51.502;7.446;2023-07-29T08:09:56;1.80;;;1.20;;
68072;SDS011;54862;51.502;7.446;2023-07-29T08:12:24;2.55;;;1.50;;
68072;SDS011;54862;51.502;7.446;2023-07-29T08:14:50;4.88;;;1.63;;
68072;SDS011;54862;51.502;7.446;2023-07-29T08:17:16;2.60;;;1.52;;
68072;SDS011;54862;51.502;7.446;2023-07-29T08:19:42;2.22;;;1.40;;
68072;SDS011;54862;51.502;7.446;2023-07-29T08:22:08;2.78;;;1.55;;
68072;SDS011;54862;51.502;7.446;2023-07-29T08:24:34;1.92;;;1.50;;
68072;SDS011;54862;51.502;7.446;2023-07-29T08:27:00;3.00;;;1.70;;
68072;SDS011;54862;51.502;7.446;2023-07-29T08:29:26;1.83;;;1.45;;
68072;SDS011;54862;51.502;7.446;2023-07-29T08:31:52;1.55;;;1.40;;
68072;SDS011;54862;51.502;7.446;2023-07-29T08:34:25;2.10;;;1.33;;
68072;SDS011;54862;51.502;7.446;2023-07-29T08:36:52;1.90;;;1.52;;
68072;SDS011;54862;51.502;7.446;2023-07-29T08:39:17;2.50;;;1.60;;
68072;SDS011;54862;51.502;7.446;2023-07-29T08:41:49;2.45;;;1.83;;
68072;SDS011;54862;51.502;7.446;2023-07-29T08:44:22;2.40;;;1.60;;
68072;SDS011;54862;51.502;7.446;2023-07-29T08:46:51;4.35;;;2.17;;
68072;SDS011;54862;51.502;7.446;2023-07-29T08:49:21;4.25;;;2.10;;
68072;SDS011;54862;51.502;7.446;2023-07-29T08:51:48;2.25;;;2.00;;
68072;SDS011;54862;51.502;7.446;2023-07-29T08:54:14;3.38;;;2.25;;
68072;SDS011;54862;51.502;7.446;2023-07-29T08:56:41;3.40;;;2.00;;
68072;SDS011;54862;51.502;7.446;2023-07-29T08:59:10;3.22;;;2.05;;
68072;SDS011;54862;51.502;7.446;2023-07-29T09:01:37;3.72;;;2.10;;
68072;SDS011;54862;51.502;7.446;2023-07-29T09:04:04;2.72;;;2.08;;
68072;SDS011;54862;51.502;7.446;2023-07-29T09:06:30;2.60;;;1.73;;
68072;SDS011;54862;51.502;7.446;2023-07-29T09:09:00;1.90;;;1.40;;
68072;SDS011;54862;51.502;7.446;2023-07-29T09:11:29;1.60;;;1.50;;
68072;SDS011;54862;51.502;7.446;2023-07-29T09:13:55;1.55;;;1.42;;
68072;SDS011;54862;51.502;7.446;2023-07-29T09:16:24;1.98;;;1.50;;
68072;SDS011;54862;51.502;7.446;2023-07-29T09:18:50;1.92;;;1.42;;
68072;SDS011;54862;51.502;7.446;2023-07-29T09:21:23;2.08;;;1.67;;
68072;SDS011;54862;51.502;7.446;2023-07-29T09:23:54;1.20;;;1.10;;
68072;SDS011;54862;51.502;7.446;2023-07-29T09:26:23;1.73;;;1.20;;
68072;SDS011;54862;51.502;7.446;2023-07-29T09:28:51;1.52;;;1.30;;
68072;SDS011;54862;51.502;7.446;2023-07-29T09:31:19;1.30;;;1.20;;
68072;SDS011;54862;51.502;7.446;2023-07-29T09:33:45;1.92;;;1.50;;
68072;SDS011;54862;51.502;7.446;2023-07-29T09:36:11;1.80;;;1.50;;
68072;SDS011;54862;51.502;7.446;2023-07-29T09:38:39;2.95;;;1.48;;
68072;SDS011;54862;51.502;7.446;2023-07-29T09:41:05;3.67;;;1.40;;
68072;SDS011;54862;51.502;7.446;2023-07-29T09:43:32;2.72;;;1.60;;
68072;SDS011;54862;51.502;7.446;2023-07-29T09:46:05;1.70;;;1.60;;
68072;SDS011;54862;51.502;7.446;2023-07-29T09:48:34;2.22;;;1.80;;
68072;SDS011;54862;51.502;7.446;2023-07-29T09:51:09;2.22;;;1.60;;
68072;SDS011;54862;51.502;7.446;2023-07-29T09:53:39;1.73;;;1.52;;
68072;SDS011;54862;51.502;7.446;2023-07-29T09:56:05;2.42;;;1.77;;
68072;SDS011;54862;51.502;7.446;2023-07-29T09:58:32;1.98;;;1.58;;
68072;SDS011;54862;51.502;7.446;2023-07-29T10:01:02;2.78;;;1.70;;
68072;SDS011;54862;51.502;7.446;2023-07-29T10:03:29;1.88;;;1.40;;
68072;SDS011;54862;51.502;7.446;2023-07-29T10:06:06;1.10;;;1.10;;
68072;SDS011;54862;51.502;7.446;2023-07-29T10:08:33;1.45;;;1.30;;
68072;SDS011;54862;51.502;7.446;2023-07-29T10:11:06;1.40;;;1.30;;
68072;SDS011;54862;51.502;7.446;2023-07-29T10:13:34;1.50;;;1.40;;
68072;SDS011;54862;51.502;7.446;2023-07-29T10:16:00;1.48;;;1.38;;
68072;SDS011;54862;51.502;7.446;2023-07-29T10:18:27;1.48;;;1.38;;
68072;SDS011;54862;51.502;7.446;2023-07-29T10:20:53;2.10;;;1.38;;
68072;SDS011;54862;51.502;7.446;2023-07-29T10:23:19;1.58;;;1.35;;
68072;SDS011;54862;51.502;7.446;2023-07-29T10:25:50;1.40;;;1.30;;
68072;SDS011;54862;51.502;7.446;2023-07-29T10:28:20;1.88;;;1.60;;
68072;SDS011;54862;51.502;7.446;2023-07-29T10:30:46;1.50;;;1.40;;
68072;SDS011;54862;51.502;7.446;2023-07-29T10:33:19;1.75;;;1.50;;
68072;SDS011;54862;51.502;7.446;2023-07-29T10:35:45;3.75;;;1.63;;
68072;SDS011;54862;51.502;7.446;2023-07-29T10:38:14;1.83;;;1.60;;
68072;SDS011;54862;51.502;7.446;2023-07-29T10:40:45;2.30;;;1.70;;
68072;SDS011;54862;51.502;7.446;2023-07-29T10:43:11;1.50;;;1.40;;
68072;SDS011;54862;51.502;7.446;2023-07-29T10:45:40;2.35;;;1.50;;
68072;SDS011;54862;51.502;7.446;2023-07-29T10:48:39;1.60;;;1.50;;
68072;SDS011;54862;51.502;7.446;2023-07-29T10:53:46;2.40;;;1.80;;
68072;SDS011;54862;51.502;7.446;2023-07-29T10:56:12;2.53;;;1.67;;
68072;SDS011;54862;51.502;7.446;2023-07-29T10:58:38;1.40;;;1.30;;
68072;SDS011;54862;51.502;7.446;2023-07-29T11:01:12;2.42;;;1.52;;
68072;SDS011;54862;51.502;7.446;2023-07-29T11:03:38;1.83;;;1.40;;
68072;SDS011;54862;51.502;7.446;2023-07-29T11:06:04;1.60;;;1.50;;
68072;SDS011;54862;51.502;7.446;2023-07-29T11:08:33;1.58;;;1.48;;
68072;SDS011;54862;51.502;7.446;2023-07-29T11:11:04;1.50;;;1.40;;
68072;SDS011;54862;51.502;7.446;2023-07-29T11:13:34;2.47;;;1.48;;
68072;SDS011;54862;51.502;7.446;2023-07-29T11:16:00;2.10;;;1.40;;
68072;SDS011;54862;51.502;7.446;2023-07-29T11:18:27;2.05;;;1.30;;
68072;SDS011;54862;51.502;7.446;2023-07-29T11:20:54;2.10;;;1.50;;
68072;SDS011;54862;51.502;7.446;2023-07-29T11:23:21;2.13;;;1.58;;
68072;SDS011;54862;51.502;7.446;2023-07-29T11:25:55;1.63;;;1.50;;
68072;SDS011;54862;51.502;7.446;2023-07-29T11:28:21;1.58;;;1.48;;
68072;SDS011;54862;51.502;7.446;2023-07-29T11:30:50;1.30;;;1.20;;
68072;SDS011;54862;51.502;7.446;2023-07-29T11:33:20;1.80;;;1.45;;
68072;SDS011;54862;51.502;7.446;2023-07-29T11:35:48;1.40;;;1.30;;
68072;SDS011;54862;51.502;7.446;2023-07-29T11:38:18;1.48;;;1.30;;
68072;SDS011;54862;51.502;7.446;2023-07-29T11:40:56;1.73;;;1.60;;
68072;SDS011;54862;51.502;7.446;2023-07-29T11:43:22;2.33;;;1.55;;
68072;SDS011;54862;51.502;7.446;2023-07-29T11:45:48;1.60;;;1.50;;
68072;SDS011;54862;51.502;7.446;2023-07-29T11:48:14;2.35;;;1.73;;
68072;SDS011;54862;51.502;7.446;2023-07-29T11:50:40;2.63;;;1.70;;
68072;SDS011;54862;51.502;7.446;2023-07-29T11:53:06;3.13;;;1.90;;
68072;SDS011;54862;51.502;7.446;2023-07-29T11:55:33;1.70;;;1.60;;
68072;SDS011;54862;51.502;7.446;2023-07-29T11:57:59;2.38;;;1.60;;
68072;SDS011;54862;51.502;7.446;2023-07-29T12:00:27;2.03;;;1.50;;
68072;SDS011;54862;51.502;7.446;2023-07-29T12:02:55;1.73;;;1.40;;
68072;SDS011;54862;51.502;7.446;2023-07-29T12:05:22;2.58;;;1.40;;
68072;SDS011;54862;51.502;7.446;2023-07-29T12:07:48;2.00;;;1.35;;
68072;SDS011;54862;51.502;7.446;2023-07-29T12:10:14;1.17;;;1.10;;
68072;SDS011;54862;51.502;7.446;2023-07-29T12:12:44;2.42;;;1.55;;
68072;SDS011;54862;51.502;7.446;2023-07-29T12:15:10;2.33;;;1.45;;
68072;SDS011;54862;51.502;7.446;2023-07-29T12:17:39;1.73;;;1.30;;
68072;SDS011;54862;51.502;7.446;2023-07-29T12:20:07;1.63;;;1.20;;
68072;SDS011;54862;51.502;7.446;2023-07-29T12:22:33;1.30;;;1.20;;
68072;SDS011;54862;51.502;7.446;2023-07-29T12:24:59;1.75;;;1.20;;
68072;SDS011;54862;51.502;7.446;2023-07-29T12:27:30;1.23;;;1.13;;
68072;SDS011;54862;51.502;7.446;2023-07-29T12:29:56;1.42;;;1.33;;
68072;SDS011;54862;51.502;7.446;2023-07-29T12:32:24;1.67;;;1.30;;
68072;SDS011;54862;51.502;7.446;2023-07-29T12:34:53;1.10;;;1.10;;
68072;SDS011;54862;51.502;7.446;2023-07-29T12:37:30;2.25;;;1.40;;
68072;SDS011;54862;51.502;7.446;2023-07-29T12:39:56;1.70;;;1.20;;
68072;SDS011;54862;51.502;7.446;2023-07-29T12:42:24;1.77;;;1.50;;
68072;SDS011;54862;51.502;7.446;2023-07-29T12:44:50;1.30;;;1.20;;
68072;SDS011;54862;51.502;7.446;2023-07-29T12:47:19;1.38;;;1.30;;
68072;SDS011;54862;51.502;7.446;2023-07-29T12:49:45;1.52;;;1.42;;
68072;SDS011;54862;51.502;7.446;2023-07-29T12:52:11;1.83;;;1.48;;
68072;SDS011;54862;51.502;7.446;2023-07-29T12:54:36;1.45;;;1.35;;
68072;SDS011;54862;51.502;7.446;2023-07-29T12:57:05;1.60;;;1.40;;
68072;SDS011;54862;51.502;7.446;2023-07-29T12:59:31;1.40;;;1.30;;
68072;SDS011;54862;51.502;7.446;2023-07-29T13:01:57;1.40;;;1.30;;
68072;SDS011;54862;51.502;7.446;2023-07-29T13:04:23;1.45;;;1.30;;
68072;SDS011;54862;51.502;7.446;2023-07-29T13:06:49;1.63;;;1.50;;
68072;SDS011;54862;51.502;7.446;2023-07-29T13:09:17;1.80;;;1.40;;
68072;SDS011;54862;51.502;7.446;2023-07-29T13:11:43;1.33;;;1.23;;
68072;SDS011;54862;51.502;7.446;2023-07-29T13:14:09;1.40;;;1.30;;
68072;SDS011;54862;51.502;7.446;2023-07-29T13:16:35;1.38;;;1.13;;
68072;SDS011;54862;51.502;7.446;2023-07-29T13:19:01;1.77;;;1.30;;
68072;SDS011;54862;51.502;7.446;2023-07-29T13:21:27;1.33;;;1.23;;
68072;SDS011;54862;51.502;7.446;2023-07-29T13:23:56;1.73;;;1.48;;
68072;SDS011;54862;51.502;7.446;2023-07-29T13:26:24;2.65;;;1.42;;
68072;SDS011;54862;51.502;7.446;2023-07-29T13:28:50;2.05;;;1.42;;
68072;SDS011;54862;51.502;7.446;2023-07-29T13:31:16;1.50;;;1.30;;
68072;SDS011;54862;51.502;7.446;2023-07-29T13:33:42;1.50;;;1.40;;
68072;SDS011;54862;51.502;7.446;2023-07-29T13:36:08;1.30;;;1.20;;
68072;SDS011;54862;51.502;7.446;2023-07-29T13:38:34;1.75;;;1.40;;
68072;SDS011;54862;51.502;7.446;2023-07-29T13:41:02;1.83;;;1.50;;
68072;SDS011;54862;51.502;7.446;2023-07-29T13:43:28;1.88;;;1.52;;
68072;SDS011;54862;51.502;7.446;2023-07-29T13:45:54;1.63;;;1.40;;
68072;SDS011;54862;51.502;7.446;2023-07-29T13:48:20;1.45;;;1.35;;
68072;SDS011;54862;51.502;7.446;2023-07-29T13:50:49;1.73;;;1.40;;
68072;SDS011;54862;51.502;7.446;2023-07-29T13:53:16;1.42;;;1.33;;
68072;SDS011;54862;51.502;7.446;2023-07-29T13:55:42;1.48;;;1.30;;
68072;SDS011;54862;51.502;7.446;2023-07-29T13:58:10;2.10;;;1.60;;
68072;SDS011;54862;51.502;7.446;2023-07-29T14:00:36;1.98;;;1.50;;
68072;SDS011;54862;51.502;7.446;2023-07-29T14:03:02;1.65;;;1.48;;
68072;SDS011;54862;51.502;7.446;2023-07-29T14:05:28;1.20;;;1.20;;
68072;SDS011;54862;51.502;7.446;2023-07-29T14:07:54;2.38;;;1.50;;
68072;SDS011;54862;51.502;7.446;2023-07-29T14:10:20;3.80;;;1.60;;
68072;SDS011;54862;51.502;7.446;2023-07-29T14:12:46;2.58;;;1.58;;
68072;SDS011;54862;51.502;7.446;2023-07-29T14:15:12;2.20;;;1.45;;
68072;SDS011;54862;51.502;7.446;2023-07-29T14:17:41;2.05;;;1.45;;
68072;SDS011;54862;51.502;7.446;2023-07-29T14:20:07;2.65;;;1.60;;
68072;SDS011;54862;51.502;7.446;2023-07-29T14:22:33;2.83;;;1.60;;
68072;SDS011;54862;51.502;7.446;2023-07-29T14:24:59;2.22;;;1.48;;
68072;SDS011;54862;51.502;7.446;2023-07-29T14:27:25;2.00;;;1.50;;
68072;SDS011;54862;51.502;7.446;2023-07-29T14:29:51;2.00;;;1.50;;
68072;SDS011;54862;51.502;7.446;2023-07-29T14:32:17;3.70;;;1.98;;
68072;SDS011;54862;51.502;7.446;2023-07-29T14:34:43;3.03;;;1.98;;
68072;SDS011;54862;51.502;7.446;2023-07-29T14:37:09;2.78;;;1.70;;
68072;SDS011;54862;51.502;7.446;2023-07-29T14:39:35;1.90;;;1.63;;
68072;SDS011;54862;51.502;7.446;2023-07-29T14:42:01;2.20;;;1.77;;
68072;SDS011;54862;51.502;7.446;2023-07-29T14:44:27;2.85;;;1.45;;
68072;SDS011;54862;51.502;7.446;2023-07-29T14:46:53;4.40;;;1.85;;
68072;SDS011;54862;51.502;7.446;2023-07-29T14:49:20;2.08;;;1.50;;
68072;SDS011;54862;51.502;7.446;2023-07-29T14:51:46;2.92;;;1.65;;
68072;SDS011;54862;51.502;7.446;2023-07-29T14:54:12;3.97;;;1.85;;
68072;SDS011;54862;51.502;7.446;2023-07-29T14:56:38;2.10;;;1.58;;